Etusivu
METAR-TAF:

METAR-TAF

Lentoasemat :

Shantou, Kiina

Leveyspiiri: 23-24N, Pituuspiiri: 116-41E, korkeus merenpinnasta: 3 m

Tämänhetkinen sää

Tämä raportti tehtiin 23 minuuttia sitten, kello 12.00 UTC
Tuuli 8 kn pohjoisesta
Lämpötila 22°C
Kosteus 53%
Ilmanpaine 1018 hPa
Näkyvyys 10 km tai enemmän
Hajanaisia pilviä 5000 ft:n korkeudessa

METAR: ZGOW 181200Z 01004MPS 9999 SCT050 22/12 Q1018 NOSIG

Aika: 20:23 (12:23 UTC)

Sääennuste

Tämä raportti tehtiin 3 tuntia ja 22 minuuttia sitten, kello 09.01 UTC
Ennuste voimassa 18. päivästä klo 12 UTC - 19. päivään klo 12 UTC
Tuuli 10 kn pohjoisen/luoteesta puuskistuen 19 kn:hen
Näkyvyys: 6000 m
Muutamia pilviä 2000 ft:n korkeudessa
Hajanaisia pilviä 5000 ft:n korkeudessa

TAF: ZGOW 180901Z 1812/1912 34005G10MPS 6000 FEW020 SCT050 TX24/1906Z TN15/1822Z

Säähavainnot ja -ennusteet yli 4000 lentoasemalta (METAR- ja TAF-raportit).

Käytössä olevat sääasemat on merkitty karttaan keltaisilla ja punaisilla pisteillä.

Aseta hiiri pisteen päälle nähdäksesi sääaseman nimen.

Klikkaa sitten nähdäksesi säähavainnot ja -ennusteet.

Kartan vaihtaminen: klikkaa mustalla rastilla varustettuja vihreitä pisteitä, niin voit zoomata sisään; viivalla varustettua vihreää pistettä, niin voit zoomata ulos tai vihreitä nuolia, niin pääset viereisille kartoille.


METAR-TAF: